createdAt,value
2022-12-28T00:01:40.207Z,0
2022-12-28T00:06:42.031Z,0
2022-12-28T00:11:43.832Z,0
2022-12-28T00:16:45.817Z,0
2022-12-28T00:21:48.122Z,0
2022-12-28T00:26:50.133Z,0
2022-12-28T00:31:52.081Z,0
2022-12-28T00:37:10.259Z,0
2022-12-28T00:42:14.135Z,0
2022-12-28T00:47:15.747Z,0
2022-12-28T00:52:17.865Z,0
2022-12-28T00:57:19.488Z,0.88715
2022-12-28T01:02:21.136Z,0.88715
2022-12-28T01:07:23.023Z,0
2022-12-28T01:12:24.939Z,0
2022-12-28T01:17:26.923Z,0
2022-12-28T01:22:29.252Z,0
2022-12-28T01:27:31.108Z,0
2022-12-28T01:32:33.215Z,0
2022-12-28T01:37:35.130Z,0.88715
2022-12-28T01:42:37.333Z,0.88715
2022-12-28T01:47:39.268Z,0
2022-12-28T01:52:41.810Z,0
2022-12-28T01:57:43.403Z,0
2022-12-28T02:02:45.114Z,0
2022-12-28T02:07:46.790Z,0
2022-12-28T02:12:48.432Z,0.88715
2022-12-28T02:17:50.108Z,0.88715
2022-12-28T02:22:52.690Z,0.88715
2022-12-28T02:27:54.228Z,0.88715
2022-12-28T02:32:55.756Z,0.88715
2022-12-28T02:37:57.616Z,0.88715
2022-12-28T02:42:59.148Z,0.88715
2022-12-28T02:48:00.651Z,1.16185
2022-12-28T02:53:02.883Z,0.47405
2022-12-28T02:58:04.414Z,1.2444
2022-12-28T03:03:06.219Z,2.96285
2022-12-28T03:08:08.023Z,6.87385
2022-12-28T03:13:09.684Z,9.9223
2022-12-28T03:18:11.248Z,19.16195
2022-12-28T03:23:14.284Z,33.6575
2022-12-28T03:28:16.215Z,46.58615
2022-12-28T03:33:17.836Z,70.0076
2022-12-28T03:38:19.402Z,93.7808
2022-12-28T03:43:21.238Z,125.77825
2022-12-28T03:48:23.040Z,146.1382
2022-12-28T03:53:25.147Z,177.0308
2022-12-28T03:58:27.114Z,214.7462
2022-12-28T04:03:29.088Z,239.73455
2022-12-28T04:08:30.773Z,260.2238
2022-12-28T04:13:32.671Z,281.506
2022-12-28T04:18:34.451Z,282.51955
2022-12-28T04:23:36.449Z,301.4229
2022-12-28T04:28:38.362Z,343.67355
2022-12-28T04:33:40.092Z,404.79325
2022-12-28T04:38:41.733Z,517.25495
2022-12-28T04:43:43.551Z,561.40525
2022-12-28T04:48:45.657Z,590.4858
2022-12-28T04:53:47.635Z,644.92545
2022-12-28T04:58:49.415Z,677.6607
2022-12-28T05:03:55.714Z,740.5679
2022-12-28T05:08:59.218Z,741.5453
2022-12-28T05:14:00.950Z,804.89555
2022-12-28T05:19:02.949Z,839.1254
2022-12-28T05:24:05.053Z,865.7205
2022-12-28T05:29:06.765Z,890.4178
2022-12-28T05:34:09.539Z,860.7686
2022-12-28T05:39:11.323Z,822.6917
2022-12-28T05:44:12.961Z,815.20895
2022-12-28T05:49:14.876Z,754.6806
2022-12-28T05:54:16.660Z,790.42775
2022-12-28T05:59:18.181Z,824.4407
2022-12-28T06:04:19.743Z,839.6949
2022-12-28T06:09:21.402Z,832.13245
2022-12-28T06:14:23.228Z,827.05915
2022-12-28T06:19:24.704Z,853.9579
2022-12-28T06:24:26.485Z,879.08285
2022-12-28T06:29:28.077Z,908.29655
2022-12-28T06:34:29.616Z,827.87295
2022-12-28T06:39:31.342Z,883.17165
2022-12-28T06:44:33.118Z,844.9508
2022-12-28T06:49:34.862Z,897.33405
2022-12-28T06:54:36.836Z,896.68225
2022-12-28T06:59:39.040Z,787.72355
2022-12-28T07:04:40.894Z,773.36785
2022-12-28T07:09:42.706Z,668.20735
2022-12-28T07:14:44.571Z,657.87505
2022-12-28T07:19:46.383Z,555.09915
2022-12-28T07:24:48.412Z,675.0596
2022-12-28T07:29:50.311Z,1101.1772
2022-12-28T07:34:52.361Z,1149.23505
2022-12-28T07:39:54.286Z,1153.62015
2022-12-28T07:44:56.093Z,1172.34515
2022-12-28T07:49:58.167Z,1233.9724
2022-12-28T07:55:00.379Z,1350.76785
2022-12-28T08:00:02.371Z,1429.7573
2022-12-28T08:05:04.154Z,891.0828
2022-12-28T08:10:05.979Z,1346.44235
2022-12-28T08:15:07.940Z,850.4608
2022-12-28T08:20:09.855Z,474.49635
2022-12-28T08:25:11.910Z,647.2732
2022-12-28T08:30:13.721Z,898.2811
2022-12-28T08:35:15.617Z,755.3804
2022-12-28T08:40:17.254Z,650.93395
2022-12-28T08:45:18.978Z,745.91275
2022-12-28T08:50:22.764Z,907.1587
2022-12-28T08:55:27.298Z,1070.56055
2022-12-28T09:00:29.073Z,1561.90035
2022-12-28T09:05:35.907Z,740.9664
2022-12-28T09:10:41.358Z,1114.21415
2022-12-28T09:15:42.918Z,1516.332
2022-12-28T09:20:48.144Z,787.27865
2022-12-28T09:25:50.901Z,741.1317
2022-12-28T09:30:52.606Z,697.9191
2022-12-28T09:35:54.099Z,633.34265
2022-12-28T09:40:55.769Z,553.1676
2022-12-28T09:45:57.300Z,612.9349
2022-12-28T09:50:58.830Z,681.19485
2022-12-28T09:56:00.759Z,997.30045
2022-12-28T10:01:02.781Z,1566.70095
2022-12-28T10:06:04.351Z,1509.75495
2022-12-28T10:11:05.993Z,940.08765
2022-12-28T10:16:07.793Z,1751.28645
2022-12-28T10:21:09.301Z,1561.0714
2022-12-28T10:26:11.287Z,1241.8549
2022-12-28T10:31:13.271Z,1633.48415
2022-12-28T10:36:15.433Z,1030.7977
2022-12-28T10:41:19.138Z,981.55695
2022-12-28T10:46:20.837Z,1269.1724
2022-12-28T10:51:22.874Z,1701.86565
2022-12-28T10:56:24.748Z,1601.011
2022-12-28T11:01:26.391Z,865.99945
2022-12-28T11:06:28.272Z,1008.9186
2022-12-28T11:11:29.991Z,1159.18515
2022-12-28T11:16:31.926Z,1235.37275
2022-12-28T11:21:34.189Z,966.83895
2022-12-28T11:26:36.368Z,1012.98525
2022-12-28T11:31:38.095Z,1610.7899
2022-12-28T11:36:39.889Z,1629.15865
2022-12-28T11:41:51.204Z,740.9933
2022-12-28T11:47:12.539Z,344.8808
2022-12-28T11:52:14.344Z,210.85745
2022-12-28T11:57:16.746Z,185.97755
2022-12-28T12:02:18.289Z,189.29765
2022-12-28T12:07:19.830Z,178.52725
2022-12-28T12:12:21.505Z,212.96055
2022-12-28T12:17:22.996Z,277.14175
2022-12-28T12:22:24.487Z,365.46505
2022-12-28T12:27:26.194Z,531.579
2022-12-28T12:32:27.964Z,872.79535
2022-12-28T12:37:29.471Z,1367.0083
2022-12-28T12:42:31.130Z,1616.6003
2022-12-28T12:47:32.666Z,1687.7679
2022-12-28T12:52:38.066Z,1605.80215
2022-12-28T12:57:42.627Z,1027.92435
2022-12-28T13:02:44.202Z,1157.19555
2022-12-28T13:07:45.739Z,1159.4071
2022-12-28T13:12:47.397Z,1198.06545
2022-12-28T13:17:50.146Z,996.17565
2022-12-28T13:22:54.210Z,840.41555
2022-12-28T13:27:56.600Z,441.4149
2022-12-28T13:32:58.431Z,280.49985
2022-12-28T13:37:59.999Z,241.1054
2022-12-28T13:43:01.754Z,194.83115
2022-12-28T13:48:03.674Z,195.27235
2022-12-28T13:53:05.539Z,157.4828
2022-12-28T13:58:08.095Z,131.69965
2022-12-28T14:03:09.565Z,114.06845
2022-12-28T14:08:11.106Z,93.1913
2022-12-28T14:13:12.610Z,74.0845
2022-12-28T14:18:14.126Z,86.2012
2022-12-28T14:23:15.972Z,77.71835
2022-12-28T14:28:17.640Z,110.3623
2022-12-28T14:33:24.357Z,107.5404
2022-12-28T14:38:26.638Z,79.50585
2022-12-28T14:43:28.456Z,58.35295
2022-12-28T14:48:30.280Z,81.51765
2022-12-28T14:53:33.242Z,102.893
2022-12-28T14:58:35.785Z,96.4011
2022-12-28T15:03:37.764Z,68.3494
2022-12-28T15:08:39.640Z,55.93795
2022-12-28T15:13:41.839Z,60.4009
2022-12-28T15:18:43.953Z,83.84135
2022-12-28T15:23:45.801Z,93.2103
2022-12-28T15:28:47.982Z,111.9672
2022-12-28T15:33:49.943Z,120.00885
2022-12-28T15:38:52.302Z,119.9369
2022-12-28T15:43:54.242Z,85.2808
2022-12-28T15:48:56.120Z,44.6208
2022-12-28T15:53:57.981Z,52.14645
2022-12-28T15:59:01.511Z,63.7609
2022-12-28T16:04:03.406Z,71.58285
2022-12-28T16:09:05.294Z,60.4425
2022-12-28T16:14:07.434Z,55.52415
2022-12-28T16:19:09.273Z,52.9168
2022-12-28T16:24:11.083Z,36.73955
2022-12-28T16:29:13.563Z,22.9326
2022-12-28T16:34:15.396Z,17.30315
2022-12-28T16:39:17.182Z,11.31815
2022-12-28T16:44:18.882Z,8.39155
2022-12-28T16:49:20.639Z,4.96115
2022-12-28T16:54:22.171Z,3.24595
2022-12-28T16:59:24.570Z,2.01475
2022-12-28T17:04:26.152Z,0.8296
2022-12-28T17:09:27.928Z,1.16185
2022-12-28T17:14:37.452Z,1.16185
2022-12-28T17:19:40.153Z,0.88715
2022-12-28T17:24:42.003Z,0
2022-12-28T17:29:44.503Z,0.88715
2022-12-28T17:34:46.319Z,0
2022-12-28T17:39:48.024Z,0
2022-12-28T17:44:50.068Z,0
2022-12-28T17:49:52.177Z,0.88715
2022-12-28T17:54:54.392Z,0.88715
2022-12-28T17:59:57.691Z,0.88715
2022-12-28T18:04:59.425Z,0
2022-12-28T18:10:01.131Z,0
2022-12-28T18:15:03.278Z,0.88715
2022-12-28T18:20:05.057Z,0
2022-12-28T18:25:06.644Z,0.88715
2022-12-28T18:30:09.082Z,0
2022-12-28T18:35:10.659Z,0
2022-12-28T18:40:12.167Z,0
2022-12-28T18:45:13.763Z,0
2022-12-28T18:50:15.749Z,0
2022-12-28T18:55:19.853Z,0.88715
2022-12-28T19:00:23.388Z,0
2022-12-28T19:05:24.913Z,0
2022-12-28T19:10:26.475Z,0.88715
2022-12-28T19:15:28.202Z,0
2022-12-28T19:20:29.990Z,0
2022-12-28T19:25:31.565Z,0
2022-12-28T19:30:33.310Z,0
2022-12-28T19:35:34.821Z,0
2022-12-28T19:40:36.606Z,0
2022-12-28T19:45:38.719Z,0
2022-12-28T19:50:40.607Z,0
2022-12-28T19:55:42.536Z,0
2022-12-28T20:00:45.223Z,0
2022-12-28T20:05:47.229Z,0
2022-12-28T20:10:49.067Z,0
2022-12-28T20:15:51.174Z,0
2022-12-28T20:21:18.700Z,0
2022-12-28T20:26:21.082Z,0
2022-12-28T20:31:23.103Z,0
2022-12-28T20:36:25.559Z,0.88715
2022-12-28T20:41:27.209Z,0
2022-12-28T20:46:29.017Z,0
2022-12-28T20:51:30.625Z,0
2022-12-28T20:56:32.709Z,0
2022-12-28T21:01:37.092Z,0
2022-12-28T21:06:40.573Z,0
2022-12-28T21:11:42.554Z,0
2022-12-28T21:16:44.693Z,0
2022-12-28T21:21:46.680Z,0
2022-12-28T21:26:49.574Z,0
2022-12-28T21:31:52.058Z,0
2022-12-28T21:36:53.763Z,0
2022-12-28T21:41:55.708Z,0.88715
2022-12-28T21:46:57.693Z,0
2022-12-28T21:51:59.569Z,0
2022-12-28T21:57:03.641Z,0
2022-12-28T22:02:07.518Z,0.88715
2022-12-28T22:07:09.205Z,0
2022-12-28T22:12:10.999Z,0
2022-12-28T22:17:14.656Z,0
2022-12-28T22:22:16.417Z,0
2022-12-28T22:32:29.277Z,0
2022-12-28T22:37:30.821Z,0
2022-12-28T22:42:32.409Z,0
2022-12-28T22:47:33.924Z,0
2022-12-28T22:52:35.607Z,0
2022-12-28T22:57:37.361Z,0.88715
2022-12-28T23:02:39.863Z,0.88715
2022-12-28T23:07:41.531Z,0
2022-12-28T23:12:43.519Z,0.88715
2022-12-28T23:17:45.613Z,0
2022-12-28T23:22:47.438Z,0
2022-12-28T23:27:49.280Z,0
2022-12-28T23:32:51.409Z,0
2022-12-28T23:37:53.222Z,0
2022-12-28T23:42:55.043Z,0
2022-12-28T23:47:57.162Z,0
2022-12-28T23:52:59.004Z,0
2022-12-28T23:58:00.848Z,0
